sensor_id;sensor_type;location;lat;lon;timestamp;pressure;altitude;pressure_sealevel;temperature;humidity
62025;BME280;47978;49.118;12.146;2023-02-12T00:02:35;99329.56;;;1.73;89.62
62025;BME280;47978;49.118;12.146;2023-02-12T00:06:37;99335.44;;;1.76;89.46
62025;BME280;47978;49.118;12.146;2023-02-12T00:10:39;99323.22;;;1.59;89.81
62025;BME280;47978;49.118;12.146;2023-02-12T00:14:40;99323.84;;;1.61;90.08
62025;BME280;47978;49.118;12.146;2023-02-12T00:18:43;99329.72;;;1.58;90.11
62025;BME280;47978;49.118;12.146;2023-02-12T00:22:45;99329.31;;;1.61;90.09
62025;BME280;47978;49.118;12.146;2023-02-12T00:26:46;99327.41;;;1.62;90.15
62025;BME280;47978;49.118;12.146;2023-02-12T00:30:48;99334.56;;;1.63;89.97
62025;BME280;47978;49.118;12.146;2023-02-12T00:34:51;99333.94;;;1.61;90.13
62025;BME280;47978;49.118;12.146;2023-02-12T00:38:54;99332.94;;;1.75;89.65
62025;BME280;47978;49.118;12.146;2023-02-12T00:42:56;99345.06;;;1.66;90.18
62025;BME280;47978;49.118;12.146;2023-02-12T00:46:57;99334.19;;;1.79;89.50
62025;BME280;47978;49.118;12.146;2023-02-12T00:51:00;99344.13;;;1.93;88.88
62025;BME280;47978;49.118;12.146;2023-02-12T00:55:01;99349.53;;;1.80;89.29
62025;BME280;47978;49.118;12.146;2023-02-12T00:59:03;99344.13;;;1.93;88.71
62025;BME280;47978;49.118;12.146;2023-02-12T01:03:04;99342.59;;;1.71;89.94
62025;BME280;47978;49.118;12.146;2023-02-12T01:07:07;99368.47;;;1.95;89.36
62025;BME280;47978;49.118;12.146;2023-02-12T01:11:10;99361.25;;;1.74;89.76
62025;BME280;47978;49.118;12.146;2023-02-12T01:15:13;99366.31;;;1.77;90.11
62025;BME280;47978;49.118;12.146;2023-02-12T01:19:14;99362.75;;;1.83;89.38
62025;BME280;47978;49.118;12.146;2023-02-12T01:23:17;99359.81;;;1.78;90.01
62025;BME280;47978;49.118;12.146;2023-02-12T01:27:19;99357.91;;;1.78;90.41
62025;BME280;47978;49.118;12.146;2023-02-12T01:31:21;99361.69;;;1.77;90.66
62025;BME280;47978;49.118;12.146;2023-02-12T01:35:23;99362.50;;;1.71;91.05
62025;BME280;47978;49.118;12.146;2023-02-12T01:39:26;99358.06;;;1.70;91.44
62025;BME280;47978;49.118;12.146;2023-02-12T01:43:27;99358.72;;;1.66;91.54
62025;BME280;47978;49.118;12.146;2023-02-12T01:47:28;99363.31;;;1.65;91.53
62025;BME280;47978;49.118;12.146;2023-02-12T01:51:30;99356.16;;;1.64;91.74
62025;BME280;47978;49.118;12.146;2023-02-12T01:55:34;99363.09;;;1.60;91.95
62025;BME280;47978;49.118;12.146;2023-02-12T01:59:36;99362.63;;;1.56;92.53
62025;BME280;47978;49.118;12.146;2023-02-12T02:03:38;99366.22;;;1.57;92.80
62025;BME280;47978;49.118;12.146;2023-02-12T02:07:40;99372.75;;;1.63;92.65
62025;BME280;47978;49.118;12.146;2023-02-12T02:11:44;99373.94;;;1.53;92.96
62025;BME280;47978;49.118;12.146;2023-02-12T02:15:47;99379.22;;;1.62;92.53
62025;BME280;47978;49.118;12.146;2023-02-12T02:19:54;99368.94;;;1.57;93.13
62025;BME280;47978;49.118;12.146;2023-02-12T02:24:18;99369.38;;;1.61;93.00
62025;BME280;47978;49.118;12.146;2023-02-12T02:28:32;99366.41;;;1.55;93.66
62025;BME280;47978;49.118;12.146;2023-02-12T02:32:42;99362.47;;;1.65;93.42
62025;BME280;47978;49.118;12.146;2023-02-12T02:36:47;99364.56;;;1.63;93.50
62025;BME280;47978;49.118;12.146;2023-02-12T02:41:02;99361.78;;;1.56;94.18
62025;BME280;47978;49.118;12.146;2023-02-12T02:45:07;99359.22;;;1.48;94.60
62025;BME280;47978;49.118;12.146;2023-02-12T02:49:15;99361.13;;;1.47;94.99
62025;BME280;47978;49.118;12.146;2023-02-12T02:53:19;99361.59;;;1.57;94.79
62025;BME280;47978;49.118;12.146;2023-02-12T02:57:23;99369.75;;;1.51;94.97
62025;BME280;47978;49.118;12.146;2023-02-12T03:01:26;99359.91;;;1.56;94.80
62025;BME280;47978;49.118;12.146;2023-02-12T03:05:31;99362.88;;;1.62;94.81
62025;BME280;47978;49.118;12.146;2023-02-12T03:09:34;99372.53;;;1.64;94.82
62025;BME280;47978;49.118;12.146;2023-02-12T03:13:38;99367.16;;;1.77;93.89
62025;BME280;47978;49.118;12.146;2023-02-12T03:17:43;99369.78;;;1.57;94.80
62025;BME280;47978;49.118;12.146;2023-02-12T03:21:47;99378.41;;;1.68;94.98
62025;BME280;47978;49.118;12.146;2023-02-12T03:25:51;99375.22;;;1.57;94.78
62025;BME280;47978;49.118;12.146;2023-02-12T03:29:54;99378.16;;;1.56;95.20
62025;BME280;47978;49.118;12.146;2023-02-12T03:33:59;99380.06;;;1.62;95.27
62025;BME280;47978;49.118;12.146;2023-02-12T03:38:07;99382.19;;;1.67;95.26
62025;BME280;47978;49.118;12.146;2023-02-12T03:42:10;99389.31;;;1.68;95.05
62025;BME280;47978;49.118;12.146;2023-02-12T03:46:14;99391.25;;;1.74;94.84
62025;BME280;47978;49.118;12.146;2023-02-12T03:50:18;99390.63;;;1.72;94.89
62025;BME280;47978;49.118;12.146;2023-02-12T03:54:22;99391.69;;;1.77;94.55
62025;BME280;47978;49.118;12.146;2023-02-12T03:58:24;99398.31;;;2.03;93.17
62025;BME280;47978;49.118;12.146;2023-02-12T04:02:28;99398.88;;;1.85;93.27
62025;BME280;47978;49.118;12.146;2023-02-12T04:06:30;99405.84;;;1.94;93.39
62025;BME280;47978;49.118;12.146;2023-02-12T04:10:33;99404.09;;;1.87;93.73
62025;BME280;47978;49.118;12.146;2023-02-12T04:14:39;99404.91;;;1.80;93.77
62025;BME280;47978;49.118;12.146;2023-02-12T04:18:42;99407.84;;;1.79;93.84
62025;BME280;47978;49.118;12.146;2023-02-12T04:22:45;99413.34;;;1.86;93.90
62025;BME280;47978;49.118;12.146;2023-02-12T04:26:53;99410.56;;;1.79;93.73
62025;BME280;47978;49.118;12.146;2023-02-12T04:30:58;99408.47;;;1.74;93.94
62025;BME280;47978;49.118;12.146;2023-02-12T04:35:01;99416.94;;;1.93;92.95
62025;BME280;47978;49.118;12.146;2023-02-12T04:39:05;99431.41;;;1.93;93.05
62025;BME280;47978;49.118;12.146;2023-02-12T04:43:10;99423.19;;;1.80;93.49
62025;BME280;47978;49.118;12.146;2023-02-12T04:47:11;99426.16;;;1.92;92.31
62025;BME280;47978;49.118;12.146;2023-02-12T04:51:13;99433.28;;;1.86;93.01
62025;BME280;47978;49.118;12.146;2023-02-12T04:55:14;99438.09;;;1.84;92.93
62025;BME280;47978;49.118;12.146;2023-02-12T04:59:17;99439.69;;;1.72;93.67
62025;BME280;47978;49.118;12.146;2023-02-12T05:03:18;99431.53;;;1.72;94.15
62025;BME280;47978;49.118;12.146;2023-02-12T05:07:20;99432.78;;;1.76;94.00
62025;BME280;47978;49.118;12.146;2023-02-12T05:11:21;99436.19;;;1.85;93.22
62025;BME280;47978;49.118;12.146;2023-02-12T05:15:24;99426.66;;;1.67;94.11
62025;BME280;47978;49.118;12.146;2023-02-12T05:19:26;99438.25;;;1.76;94.10
62025;BME280;47978;49.118;12.146;2023-02-12T05:23:27;99438.72;;;1.79;93.98
62025;BME280;47978;49.118;12.146;2023-02-12T05:27:29;99438.41;;;2.02;93.23
62025;BME280;47978;49.118;12.146;2023-02-12T05:31:32;99437.09;;;1.92;92.80
62025;BME280;47978;49.118;12.146;2023-02-12T05:35:34;99453.59;;;1.84;93.62
62025;BME280;47978;49.118;12.146;2023-02-12T05:39:35;99456.16;;;1.85;94.21
62025;BME280;47978;49.118;12.146;2023-02-12T05:43:37;99447.25;;;1.76;94.22
62025;BME280;47978;49.118;12.146;2023-02-12T05:47:40;99440.22;;;1.89;93.17
62025;BME280;47978;49.118;12.146;2023-02-12T05:51:41;99446.22;;;1.77;93.76
62025;BME280;47978;49.118;12.146;2023-02-12T05:55:43;99454.41;;;1.77;93.78
62025;BME280;47978;49.118;12.146;2023-02-12T05:59:44;99457.41;;;1.89;92.86
62025;BME280;47978;49.118;12.146;2023-02-12T06:03:47;99455.44;;;1.76;93.33
62025;BME280;47978;49.118;12.146;2023-02-12T06:07:48;99454.94;;;1.94;92.68
62025;BME280;47978;49.118;12.146;2023-02-12T06:11:50;99465.16;;;1.86;93.00
62025;BME280;47978;49.118;12.146;2023-02-12T06:15:51;99462.72;;;1.97;91.91
62025;BME280;47978;49.118;12.146;2023-02-12T06:19:54;99471.22;;;1.81;93.24
62025;BME280;47978;49.118;12.146;2023-02-12T06:23:55;99473.94;;;1.81;93.57
62025;BME280;47978;49.118;12.146;2023-02-12T06:27:57;99474.38;;;1.50;94.63
62025;BME280;47978;49.118;12.146;2023-02-12T06:31:58;99486.09;;;1.50;94.61
62025;BME280;47978;49.118;12.146;2023-02-12T06:36:03;99489.88;;;1.49;94.95
62025;BME280;47978;49.118;12.146;2023-02-12T06:40:05;99489.09;;;1.55;94.96
62025;BME280;47978;49.118;12.146;2023-02-12T06:44:06;99498.75;;;1.58;94.75
62025;BME280;47978;49.118;12.146;2023-02-12T06:48:08;99504.25;;;1.65;94.31
62025;BME280;47978;49.118;12.146;2023-02-12T06:52:11;99500.50;;;1.66;94.48
62025;BME280;47978;49.118;12.146;2023-02-12T06:56:12;99510.38;;;1.73;94.16
62025;BME280;47978;49.118;12.146;2023-02-12T07:00:14;99515.94;;;1.87;93.68
62025;BME280;47978;49.118;12.146;2023-02-12T07:04:15;99516.16;;;1.85;93.47
62025;BME280;47978;49.118;12.146;2023-02-12T07:08:18;99504.59;;;1.83;93.91
62025;BME280;47978;49.118;12.146;2023-02-12T07:12:19;99505.69;;;1.89;93.69
62025;BME280;47978;49.118;12.146;2023-02-12T07:16:21;99513.88;;;1.89;94.00
62025;BME280;47978;49.118;12.146;2023-02-12T07:20:23;99515.34;;;1.91;93.68
62025;BME280;47978;49.118;12.146;2023-02-12T07:24:25;99503.34;;;2.20;93.01
62025;BME280;47978;49.118;12.146;2023-02-12T07:28:27;99514.03;;;2.22;92.77
62025;BME280;47978;49.118;12.146;2023-02-12T07:32:28;99511.19;;;2.02;93.33
62025;BME280;47978;49.118;12.146;2023-02-12T07:36:32;99510.03;;;2.18;93.57
62025;BME280;47978;49.118;12.146;2023-02-12T07:40:35;99514.59;;;2.45;92.03
62025;BME280;47978;49.118;12.146;2023-02-12T07:44:36;99510.63;;;2.61;91.91
62025;BME280;47978;49.118;12.146;2023-02-12T07:48:38;99514.03;;;2.70;91.25
62025;BME280;47978;49.118;12.146;2023-02-12T07:52:39;99513.38;;;2.61;92.02
62025;BME280;47978;49.118;12.146;2023-02-12T07:56:42;99525.66;;;2.92;91.24
62025;BME280;47978;49.118;12.146;2023-02-12T08:00:44;99516.63;;;2.91;90.98
62025;BME280;47978;49.118;12.146;2023-02-12T08:04:45;99518.53;;;2.98;91.01
62025;BME280;47978;49.118;12.146;2023-02-12T08:08:49;99514.16;;;3.23;90.64
62025;BME280;47978;49.118;12.146;2023-02-12T08:12:52;99523.00;;;3.45;90.16
62025;BME280;47978;49.118;12.146;2023-02-12T08:16:53;99527.63;;;3.65;89.58
62025;BME280;47978;49.118;12.146;2023-02-12T08:20:54;99529.31;;;3.79;88.91
62025;BME280;47978;49.118;12.146;2023-02-12T08:25:00;99528.03;;;3.88;88.91
62025;BME280;47978;49.118;12.146;2023-02-12T08:29:04;99522.34;;;3.96;88.53
62025;BME280;47978;49.118;12.146;2023-02-12T08:33:06;99529.06;;;4.07;88.04
62025;BME280;47978;49.118;12.146;2023-02-12T08:37:07;99529.84;;;4.21;87.02
62025;BME280;47978;49.118;12.146;2023-02-12T08:41:09;99523.34;;;4.15;87.01
62025;BME280;47978;49.118;12.146;2023-02-12T08:45:12;99530.09;;;4.19;87.67
62025;BME280;47978;49.118;12.146;2023-02-12T08:49:14;99522.91;;;4.25;87.41
62025;BME280;47978;49.118;12.146;2023-02-12T08:53:16;99524.13;;;4.42;86.88
62025;BME280;47978;49.118;12.146;2023-02-12T08:57:17;99516.25;;;4.59;86.72
62025;BME280;47978;49.118;12.146;2023-02-12T09:01:21;99526.34;;;4.65;86.74
62025;BME280;47978;49.118;12.146;2023-02-12T09:05:23;99526.84;;;4.94;85.46
62025;BME280;47978;49.118;12.146;2023-02-12T09:09:24;99528.09;;;4.98;85.38
62025;BME280;47978;49.118;12.146;2023-02-12T09:13:26;99530.28;;;5.14;85.24
62025;BME280;47978;49.118;12.146;2023-02-12T09:17:28;99532.81;;;5.48;84.68
62025;BME280;47978;49.118;12.146;2023-02-12T09:21:30;99541.78;;;5.61;84.41
62025;BME280;47978;49.118;12.146;2023-02-12T09:25:31;99544.75;;;5.85;83.55
62025;BME280;47978;49.118;12.146;2023-02-12T09:29:33;99540.69;;;5.94;83.13
62025;BME280;47978;49.118;12.146;2023-02-12T09:33:35;99535.41;;;6.18;83.20
62025;BME280;47978;49.118;12.146;2023-02-12T09:37:37;99531.66;;;6.30;82.54
62025;BME280;47978;49.118;12.146;2023-02-12T09:45:56;99540.53;;;6.99;80.02
62025;BME280;47978;49.118;12.146;2023-02-12T09:50:05;99543.00;;;7.19;79.38
62025;BME280;47978;49.118;12.146;2023-02-12T09:54:12;99539.88;;;7.46;78.10
62025;BME280;47978;49.118;12.146;2023-02-12T09:58:15;99540.06;;;7.33;77.45
62025;BME280;47978;49.118;12.146;2023-02-12T10:02:18;99540.44;;;7.36;77.96
62025;BME280;47978;49.118;12.146;2023-02-12T10:06:23;99547.88;;;7.48;77.46
62025;BME280;47978;49.118;12.146;2023-02-12T10:10:27;99552.56;;;7.47;77.16
62025;BME280;47978;49.118;12.146;2023-02-12T10:14:41;99544.66;;;7.51;77.48
62025;BME280;47978;49.118;12.146;2023-02-12T10:19:02;99546.53;;;7.69;77.25
62025;BME280;47978;49.118;12.146;2023-02-12T10:23:15;99544.97;;;7.73;77.11
62025;BME280;47978;49.118;12.146;2023-02-12T10:27:19;99541.75;;;7.87;76.67
62025;BME280;47978;49.118;12.146;2023-02-12T10:31:26;99541.75;;;8.11;76.18
62025;BME280;47978;49.118;12.146;2023-02-12T10:35:30;99537.09;;;8.23;75.46
62025;BME280;47978;49.118;12.146;2023-02-12T10:39:35;99550.75;;;8.42;74.73
62025;BME280;47978;49.118;12.146;2023-02-12T10:43:39;99541.75;;;8.58;73.80
62025;BME280;47978;49.118;12.146;2023-02-12T10:47:41;99537.63;;;8.72;72.90
62025;BME280;47978;49.118;12.146;2023-02-12T10:51:47;99540.16;;;8.74;73.57
62025;BME280;47978;49.118;12.146;2023-02-12T10:56:04;99536.66;;;8.78;72.58
62025;BME280;47978;49.118;12.146;2023-02-12T11:00:14;99538.06;;;8.93;72.51
62025;BME280;47978;49.118;12.146;2023-02-12T11:04:23;99530.88;;;8.92;71.99
62025;BME280;47978;49.118;12.146;2023-02-12T11:08:29;99534.09;;;9.00;72.53
62025;BME280;47978;49.118;12.146;2023-02-12T11:12:33;99529.13;;;9.14;71.71
62025;BME280;47978;49.118;12.146;2023-02-12T11:16:35;99528.13;;;9.20;71.47
62025;BME280;47978;49.118;12.146;2023-02-12T11:20:38;99531.47;;;9.22;71.57
62025;BME280;47978;49.118;12.146;2023-02-12T11:24:40;99523.69;;;9.19;71.48
62025;BME280;47978;49.118;12.146;2023-02-12T11:28:51;99519.78;;;9.04;71.98
62025;BME280;47978;49.118;12.146;2023-02-12T11:32:53;99517.63;;;9.06;72.00
62025;BME280;47978;49.118;12.146;2023-02-12T11:36:54;99517.84;;;9.04;72.35
62025;BME280;47978;49.118;12.146;2023-02-12T11:40:58;99514.97;;;9.11;71.89
62025;BME280;47978;49.118;12.146;2023-02-12T11:45:02;99512.84;;;9.01;72.30
62025;BME280;47978;49.118;12.146;2023-02-12T11:49:03;99508.16;;;9.01;71.72
62025;BME280;47978;49.118;12.146;2023-02-12T11:53:06;99501.81;;;9.01;72.63
62025;BME280;47978;49.118;12.146;2023-02-12T11:57:11;99516.63;;;9.12;72.13
62025;BME280;47978;49.118;12.146;2023-02-12T12:01:34;99506.03;;;9.20;72.08
62025;BME280;47978;49.118;12.146;2023-02-12T12:05:38;99513.66;;;9.30;71.10
62025;BME280;47978;49.118;12.146;2023-02-12T12:09:42;99512.69;;;9.36;70.45
62025;BME280;47978;49.118;12.146;2023-02-12T12:13:46;99499.22;;;9.40;70.24
62025;BME280;47978;49.118;12.146;2023-02-12T12:17:52;99506.50;;;9.46;69.23
62025;BME280;47978;49.118;12.146;2023-02-12T12:21:56;99500.97;;;9.46;68.41
62025;BME280;47978;49.118;12.146;2023-02-12T12:26:00;99503.56;;;9.53;67.18
62025;BME280;47978;49.118;12.146;2023-02-12T12:30:07;99504.16;;;9.55;68.31
62025;BME280;47978;49.118;12.146;2023-02-12T12:34:13;99500.72;;;9.64;68.26
62025;BME280;47978;49.118;12.146;2023-02-12T12:38:17;99496.94;;;9.87;67.73
62025;BME280;47978;49.118;12.146;2023-02-12T12:42:27;99491.06;;;10.18;64.98
62025;BME280;47978;49.118;12.146;2023-02-12T12:46:48;99491.16;;;10.23;65.45
62025;BME280;47978;49.118;12.146;2023-02-12T12:50:59;99492.81;;;10.24;65.64
62025;BME280;47978;49.118;12.146;2023-02-12T12:55:06;99490.75;;;10.31;63.69
62025;BME280;47978;49.118;12.146;2023-02-12T12:59:22;99487.03;;;10.42;65.00
62025;BME280;47978;49.118;12.146;2023-02-12T13:03:41;99487.41;;;9.95;64.90
62025;BME280;47978;49.118;12.146;2023-02-12T13:07:55;99490.50;;;9.99;65.99
62025;BME280;47978;49.118;12.146;2023-02-12T13:12:10;99483.78;;;10.11;66.50
62025;BME280;47978;49.118;12.146;2023-02-12T13:16:15;99481.09;;;10.17;66.08
62025;BME280;47978;49.118;12.146;2023-02-12T13:20:20;99483.13;;;10.04;65.48
62025;BME280;47978;49.118;12.146;2023-02-12T13:24:28;99478.59;;;10.15;65.72
62025;BME280;47978;49.118;12.146;2023-02-12T13:28:34;99490.81;;;10.36;65.49
62025;BME280;47978;49.118;12.146;2023-02-12T13:32:38;99485.94;;;10.26;65.74
62025;BME280;47978;49.118;12.146;2023-02-12T13:36:41;99483.47;;;10.08;66.32
62025;BME280;47978;49.118;12.146;2023-02-12T13:40:44;99480.88;;;10.01;66.09
62025;BME280;47978;49.118;12.146;2023-02-12T13:44:46;99482.97;;;9.94;65.85
62025;BME280;47978;49.118;12.146;2023-02-12T13:48:53;99485.56;;;9.84;66.33
62025;BME280;47978;49.118;12.146;2023-02-12T13:52:57;99482.56;;;9.85;65.90
62025;BME280;47978;49.118;12.146;2023-02-12T13:57:01;99484.84;;;9.72;66.25
62025;BME280;47978;49.118;12.146;2023-02-12T14:01:04;99480.41;;;9.54;67.16
62025;BME280;47978;49.118;12.146;2023-02-12T14:05:13;99482.66;;;9.57;66.68
62025;BME280;47978;49.118;12.146;2023-02-12T14:09:17;99482.06;;;9.55;67.14
62025;BME280;47978;49.118;12.146;2023-02-12T14:13:22;99485.75;;;9.43;67.14
62025;BME280;47978;49.118;12.146;2023-02-12T14:17:40;99483.69;;;9.05;67.66
62025;BME280;47978;49.118;12.146;2023-02-12T14:21:41;99481.44;;;8.62;67.98
62025;BME280;47978;49.118;12.146;2023-02-12T14:25:43;99485.66;;;8.52;68.31
62025;BME280;47978;49.118;12.146;2023-02-12T14:30:00;99487.03;;;8.03;69.82
62025;BME280;47978;49.118;12.146;2023-02-12T14:42:53;99480.31;;;7.63;72.13
62025;BME280;47978;49.118;12.146;2023-02-12T14:46:57;99475.41;;;7.89;71.36
62025;BME280;47978;49.118;12.146;2023-02-12T14:51:00;99471.34;;;7.92;71.40
62025;BME280;47978;49.118;12.146;2023-02-12T14:55:03;99477.91;;;7.67;71.44
62025;BME280;47978;49.118;12.146;2023-02-12T14:59:05;99478.44;;;7.34;72.62
62025;BME280;47978;49.118;12.146;2023-02-12T15:03:16;99471.50;;;7.31;72.99
62025;BME280;47978;49.118;12.146;2023-02-12T15:07:21;99468.50;;;7.21;73.05
62025;BME280;47978;49.118;12.146;2023-02-12T15:11:29;99464.47;;;7.35;72.86
62025;BME280;47978;49.118;12.146;2023-02-12T15:15:34;99470.28;;;7.15;73.10
62025;BME280;47978;49.118;12.146;2023-02-12T15:19:41;99463.91;;;7.03;73.85
62025;BME280;47978;49.118;12.146;2023-02-12T15:23:43;99462.19;;;6.90;74.48
62025;BME280;47978;49.118;12.146;2023-02-12T15:27:46;99461.13;;;6.61;74.94
62025;BME280;47978;49.118;12.146;2023-02-12T15:31:49;99459.50;;;6.53;75.22
62025;BME280;47978;49.118;12.146;2023-02-12T15:35:52;99463.34;;;6.34;75.65
62025;BME280;47978;49.118;12.146;2023-02-12T15:39:56;99457.88;;;6.16;76.14
62025;BME280;47978;49.118;12.146;2023-02-12T15:43:58;99454.34;;;6.08;76.27
62025;BME280;47978;49.118;12.146;2023-02-12T15:48:02;99461.28;;;5.68;77.26
62025;BME280;47978;49.118;12.146;2023-02-12T15:52:09;99453.59;;;5.58;77.79
62025;BME280;47978;49.118;12.146;2023-02-12T15:56:16;99457.69;;;5.24;78.66
62025;BME280;47978;49.118;12.146;2023-02-12T16:00:23;99461.53;;;5.16;79.05
62025;BME280;47978;49.118;12.146;2023-02-12T16:04:28;99457.84;;;4.97;79.13
62025;BME280;47978;49.118;12.146;2023-02-12T16:08:32;99456.59;;;4.61;80.36
62025;BME280;47978;49.118;12.146;2023-02-12T16:12:33;99452.66;;;3.99;82.36
62025;BME280;47978;49.118;12.146;2023-02-12T16:16:38;99456.94;;;3.48;84.28
62025;BME280;47978;49.118;12.146;2023-02-12T16:20:40;99467.25;;;3.33;84.61
62025;BME280;47978;49.118;12.146;2023-02-12T16:24:45;99473.34;;;3.15;85.12
62025;BME280;47978;49.118;12.146;2023-02-12T16:28:47;99472.03;;;2.71;86.62
62025;BME280;47978;49.118;12.146;2023-02-12T16:32:49;99481.47;;;2.62;87.00
62025;BME280;47978;49.118;12.146;2023-02-12T16:36:50;99483.50;;;2.53;86.76
62025;BME280;47978;49.118;12.146;2023-02-12T16:45:34;99486.94;;;2.14;88.25
62025;BME280;47978;49.118;12.146;2023-02-12T16:49:35;99490.69;;;2.13;88.36
62025;BME280;47978;49.118;12.146;2023-02-12T16:53:38;99494.41;;;1.98;88.15
62025;BME280;47978;49.118;12.146;2023-02-12T16:57:39;99493.41;;;1.71;89.94
62025;BME280;47978;49.118;12.146;2023-02-12T17:01:43;99502.13;;;1.60;90.88
62025;BME280;47978;49.118;12.146;2023-02-12T17:05:55;99506.28;;;1.56;90.46
62025;BME280;47978;49.118;12.146;2023-02-12T17:09:58;99512.75;;;1.27;91.62
62025;BME280;47978;49.118;12.146;2023-02-12T17:13:59;99522.88;;;1.33;91.29
62025;BME280;47978;49.118;12.146;2023-02-12T17:18:02;99519.59;;;1.44;90.78
62025;BME280;47978;49.118;12.146;2023-02-12T17:22:03;99520.97;;;1.33;91.14
62025;BME280;47978;49.118;12.146;2023-02-12T17:26:05;99516.19;;;1.35;90.74
62025;BME280;47978;49.118;12.146;2023-02-12T17:30:07;99518.25;;;1.33;90.99
62025;BME280;47978;49.118;12.146;2023-02-12T17:34:10;99532.66;;;1.27;90.67
62025;BME280;47978;49.118;12.146;2023-02-12T17:38:11;99527.47;;;1.32;90.58
62025;BME280;47978;49.118;12.146;2023-02-12T17:42:13;99530.72;;;1.21;90.99
62025;BME280;47978;49.118;12.146;2023-02-12T17:46:16;99527.13;;;1.14;91.03
62025;BME280;47978;49.118;12.146;2023-02-12T17:50:20;99534.19;;;1.08;91.11
62025;BME280;47978;49.118;12.146;2023-02-12T17:54:21;99525.47;;;0.98;91.66
62025;BME280;47978;49.118;12.146;2023-02-12T17:58:22;99529.44;;;0.96;92.11
62025;BME280;47978;49.118;12.146;2023-02-12T18:02:24;99524.03;;;1.02;91.56
62025;BME280;47978;49.118;12.146;2023-02-12T18:06:27;99529.31;;;1.04;92.33
62025;BME280;47978;49.118;12.146;2023-02-12T18:10:29;99534.22;;;0.94;92.83
62025;BME280;47978;49.118;12.146;2023-02-12T18:14:30;99534.88;;;0.96;92.78
62025;BME280;47978;49.118;12.146;2023-02-12T18:18:32;99535.53;;;0.98;93.42
62025;BME280;47978;49.118;12.146;2023-02-12T18:22:35;99531.19;;;1.03;93.18
62025;BME280;47978;49.118;12.146;2023-02-12T18:26:36;99523.47;;;1.07;93.31
62025;BME280;47978;49.118;12.146;2023-02-12T18:30:37;99524.69;;;1.04;93.29
62025;BME280;47978;49.118;12.146;2023-02-12T18:34:40;99528.25;;;1.05;93.31
62025;BME280;47978;49.118;12.146;2023-02-12T18:38:42;99519.91;;;1.06;93.33
62025;BME280;47978;49.118;12.146;2023-02-12T18:42:45;99522.91;;;1.11;93.60
62025;BME280;47978;49.118;12.146;2023-02-12T18:46:46;99527.34;;;1.19;93.47
62025;BME280;47978;49.118;12.146;2023-02-12T18:50:48;99524.00;;;1.17;93.30
62025;BME280;47978;49.118;12.146;2023-02-12T18:54:51;99530.41;;;1.31;92.72
62025;BME280;47978;49.118;12.146;2023-02-12T18:58:55;99526.44;;;1.33;92.91
62025;BME280;47978;49.118;12.146;2023-02-12T19:02:57;99523.38;;;1.43;91.89
62025;BME280;47978;49.118;12.146;2023-02-12T19:06:58;99520.44;;;1.45;92.10
62025;BME280;47978;49.118;12.146;2023-02-12T19:11:01;99522.59;;;1.49;92.33
62025;BME280;47978;49.118;12.146;2023-02-12T19:15:02;99522.78;;;1.48;92.62
62025;BME280;47978;49.118;12.146;2023-02-12T19:19:04;99526.81;;;1.52;92.41
62025;BME280;47978;49.118;12.146;2023-02-12T19:23:05;99519.50;;;1.59;92.53
62025;BME280;47978;49.118;12.146;2023-02-12T19:27:08;99530.03;;;1.62;92.46
62025;BME280;47978;49.118;12.146;2023-02-12T19:31:10;99532.97;;;1.61;93.06
62025;BME280;47978;49.118;12.146;2023-02-12T19:35:14;99529.25;;;1.68;92.59
62025;BME280;47978;49.118;12.146;2023-02-12T19:39:16;99530.50;;;1.66;92.55
62025;BME280;47978;49.118;12.146;2023-02-12T19:43:19;99524.53;;;1.84;92.24
62025;BME280;47978;49.118;12.146;2023-02-12T19:47:21;99538.56;;;1.80;92.08
62025;BME280;47978;49.118;12.146;2023-02-12T19:51:22;99534.59;;;1.83;91.48
62025;BME280;47978;49.118;12.146;2023-02-12T19:55:23;99540.19;;;1.75;91.76
62025;BME280;47978;49.118;12.146;2023-02-12T19:59:26;99534.34;;;1.78;91.79
62025;BME280;47978;49.118;12.146;2023-02-12T20:03:27;99530.66;;;1.92;91.66
62025;BME280;47978;49.118;12.146;2023-02-12T20:07:29;99525.97;;;1.79;91.85
62025;BME280;47978;49.118;12.146;2023-02-12T20:11:31;99533.63;;;1.91;91.83
62025;BME280;47978;49.118;12.146;2023-02-12T20:15:35;99534.63;;;1.90;91.93
62025;BME280;47978;49.118;12.146;2023-02-12T20:19:36;99545.50;;;1.83;92.22
62025;BME280;47978;49.118;12.146;2023-02-12T20:23:38;99548.38;;;1.75;92.72
62025;BME280;47978;49.118;12.146;2023-02-12T20:27:39;99552.19;;;1.80;92.61
62025;BME280;47978;49.118;12.146;2023-02-12T20:31:42;99542.72;;;1.76;92.64
62025;BME280;47978;49.118;12.146;2023-02-12T20:35:43;99551.75;;;1.77;92.86
62025;BME280;47978;49.118;12.146;2023-02-12T20:39:45;99545.59;;;1.96;91.67
62025;BME280;47978;49.118;12.146;2023-02-12T20:43:46;99548.72;;;1.93;92.06
62025;BME280;47978;49.118;12.146;2023-02-12T20:47:49;99542.22;;;1.94;92.19
62025;BME280;47978;49.118;12.146;2023-02-12T20:51:51;99543.06;;;1.95;92.16
62025;BME280;47978;49.118;12.146;2023-02-12T20:55:52;99549.31;;;2.17;91.32
62025;BME280;47978;49.118;12.146;2023-02-12T20:59:54;99545.59;;;2.31;90.78
62025;BME280;47978;49.118;12.146;2023-02-12T21:03:59;99544.44;;;2.12;90.55
62025;BME280;47978;49.118;12.146;2023-02-12T21:08:01;99552.44;;;2.14;90.13
62025;BME280;47978;49.118;12.146;2023-02-12T21:12:02;99551.50;;;2.00;91.19
62025;BME280;47978;49.118;12.146;2023-02-12T21:16:05;99544.94;;;2.29;90.29
62025;BME280;47978;49.118;12.146;2023-02-12T21:20:08;99549.75;;;2.27;90.90
62025;BME280;47978;49.118;12.146;2023-02-12T21:24:11;99552.66;;;2.19;90.30
62025;BME280;47978;49.118;12.146;2023-02-12T21:28:13;99549.84;;;2.40;90.17
62025;BME280;47978;49.118;12.146;2023-02-12T21:32:14;99554.19;;;2.28;90.31
62025;BME280;47978;49.118;12.146;2023-02-12T21:36:18;99551.31;;;2.36;90.36
62025;BME280;47978;49.118;12.146;2023-02-12T21:40:20;99549.69;;;2.14;90.90
62025;BME280;47978;49.118;12.146;2023-02-12T21:44:22;99545.09;;;2.14;90.44
62025;BME280;47978;49.118;12.146;2023-02-12T21:48:24;99537.75;;;2.21;90.92